KMIAMYGF

Guest
Details From KMIA - Miami Intl
To MYGF - Grand Bahama Intl
Flight Number -
Tags decoded
Created
Modified
Stats Distance 97 nm / 180 km
Max Altitude 0 ft / 0 m
Waypoints 3
Social Downloads 7
Likes 0
Share VATSIM

Download

Looking for another format? Having issues loading an existing format? Contact us
Advertisement - Login to hide

Notes

Requested: KMIA PADUS MYGF

Route

KMIA PADUS MYGF

ID Type Via Altitude Latitude Longitude Leg Dist Tot Dist Heading (true) Name
O KMIA APT - 0 ft / 0 m 25.79617˚ -80.28974˚ - 0 nm - Miami Intl
PADUS FIX - 0 ft / 0 m 26.35401˚ -79.10858˚ 71 nm 71 nm 62° / 63° -
O MYGF APT - 0 ft / 0 m 26.55868˚ -78.69555˚ 25 nm 97 nm 61° / 61° Grand Bahama Intl

Altitude Profile

Advertisement - Login to hide

KMIA

Details ICAO KMIA (MIA)
Name Miami Intl
Region United States
Timezone America/New_York (UTC-5.0)
Stats Elevation 8 ft / 2 m (AMSL)
Location 25.796167° -80.289742°
Runways 4
Magnetic Variation 6.640° W

METAR

KMIA 121353Z COR 30005KT 10SM FEW250 16/07 A3013 RMK AO2 SLP202 T01560067

Decode

TAF

TAF KMIA 121120Z 1212/1318 VRB03KT P6SM SKC FM121500 27010KT P6SM FEW030 FM130000 27006KT P6SM SKC FM130500 31006KT P6SM SKC FM131400 34010KT P6SM SKC

Decode

Departure Runways

ID Width Length Bearing (true) Bearing (mag) Surface Threshold Offset Overrun Length
08L 151 ft / 46 m 8,588 ft / 2,618 m 87.35° 93.99° Asphalt 0 ft / 0 m 1,001 ft / 305 m
08R 200 ft / 61 m 10,490 ft / 3,197 m 87.37° 94.01° Asphalt 0 ft / 0 m 1,001 ft / 305 m
09 151 ft / 46 m 12,981 ft / 3,957 m 87.36° 94.00° Asphalt 1,348 ft / 411 m 1,001 ft / 305 m
12 151 ft / 46 m 9,353 ft / 2,851 m 119.60° 126.24° Asphalt 0 ft / 0 m 1,001 ft / 305 m
26L 200 ft / 61 m 10,490 ft / 3,197 m 267.38° 274.02° Asphalt 0 ft / 0 m 1,001 ft / 305 m
26R 151 ft / 46 m 8,588 ft / 2,618 m 267.37° 274.01° Asphalt 0 ft / 0 m 1,001 ft / 305 m
27 151 ft / 46 m 12,981 ft / 3,957 m 267.38° 274.02° Asphalt 1,270 ft / 387 m 899 ft / 274 m
30 151 ft / 46 m 9,353 ft / 2,851 m 299.61° 306.25° Asphalt 938 ft / 286 m 427 ft / 130 m

MYGF

Details ICAO MYGF (FPO)
Name Grand Bahama Intl
Region Bahamas
Timezone America/Nassau (UTC-5.0)
Stats Elevation 7 ft / 2 m (AMSL)
Location 26.558684° -78.695553°
Runways 1
Magnetic Variation 7.724° W

METAR

MYGF 121400Z 33004KT 9999 FEW025 19/12 A3008

Decode

TAF

TAF MYGF 121100Z 1212/1312 VRB02KT 9999 SCT030 BECMG 1218/1220 28010G20KT

Decode

Destination Runways

ID Width Length Bearing (true) Bearing (mag) Surface Threshold Offset Overrun Length
06 151 ft / 46 m 11,016 ft / 3,358 m 60.89° 68.61° Asphalt 0 ft / 0 m 194 ft / 59 m
24 151 ft / 46 m 11,016 ft / 3,358 m 240.91° 248.63° Asphalt 0 ft / 0 m 200 ft / 61 m

Approach Navaids

Runway Type Ident Frequency Range Bearing (true) Bearing (mag) Slope Elevation
06 Localiser IZFP 109.70 MHz 18 nm / 33 km 60.91° 68.63° - 7 ft / 2 m (AMSL)
06 Glidescope IZFP 109.70 MHz 10 nm / 19 km 60.90° 68.63° 3.00° 7 ft / 2 m (AMSL)

Popular Alternatives